createdAt,value
2023-07-18T00:00:26.708Z,27.73
2023-07-18T00:03:29.812Z,27.69
2023-07-18T00:06:31.786Z,27.92
2023-07-18T00:09:33.745Z,28.30
2023-07-18T00:12:36.483Z,28.58
2023-07-18T00:15:38.953Z,27.60
2023-07-18T00:18:40.931Z,27.49
2023-07-18T00:21:42.889Z,27.85
2023-07-18T00:24:44.961Z,27.41
2023-07-18T00:27:47.408Z,27.74
2023-07-18T00:30:49.355Z,27.98
2023-07-18T00:33:51.243Z,28.24
2023-07-18T00:36:56.440Z,27.56
2023-07-18T00:39:58.432Z,27.54
2023-07-18T00:43:00.328Z,27.58
2023-07-18T00:46:02.377Z,27.72
2023-07-18T00:49:04.540Z,27.99
2023-07-18T00:52:07.501Z,27.69
2023-07-18T00:55:09.814Z,27.85
2023-07-18T00:58:11.696Z,27.86
2023-07-18T01:01:13.657Z,27.66
2023-07-18T01:04:16.222Z,27.87
2023-07-18T01:07:19.693Z,27.99
2023-07-18T01:10:25.945Z,28.03
2023-07-18T01:13:28.259Z,27.72
2023-07-18T01:16:30.568Z,27.38
2023-07-18T01:19:32.415Z,28.11
2023-07-18T01:22:34.748Z,28.24
2023-07-18T01:25:38.390Z,28.27
2023-07-18T01:28:40.236Z,28.23
2023-07-18T01:31:42.914Z,28.10
2023-07-18T01:34:44.809Z,28.06
2023-07-18T01:37:47.720Z,28.13
2023-07-18T01:40:49.710Z,28.23
2023-07-18T01:43:51.634Z,28.31
2023-07-18T01:46:53.627Z,27.93
2023-07-18T01:49:55.616Z,28.06
2023-07-18T01:52:57.514Z,28.79
2023-07-18T01:56:00.096Z,28.64
2023-07-18T01:59:02.004Z,28.17
2023-07-18T02:02:07.555Z,28.37
2023-07-18T02:05:09.532Z,27.90
2023-07-18T02:08:11.795Z,27.55
2023-07-18T02:11:13.713Z,27.27
2023-07-18T02:14:20.622Z,27.58
2023-07-18T02:17:22.580Z,27.77
2023-07-18T02:20:24.617Z,27.09
2023-07-18T02:23:26.506Z,27.28
2023-07-18T02:26:28.380Z,27.36
2023-07-18T02:29:30.378Z,27.50
2023-07-18T02:32:32.312Z,27.12
2023-07-18T02:35:34.167Z,27.36
2023-07-18T02:38:36.085Z,27.46
2023-07-18T02:41:38.462Z,27.42
2023-07-18T02:44:40.306Z,27.66
2023-07-18T02:47:44.518Z,27.40
2023-07-18T02:50:46.865Z,28.05
2023-07-18T02:53:50.683Z,27.21
2023-07-18T02:56:52.592Z,27.25
2023-07-18T02:59:54.697Z,26.85
2023-07-18T03:02:56.684Z,27.33
2023-07-18T03:05:58.712Z,27.25
2023-07-18T03:09:01.105Z,27.11
2023-07-18T03:12:03.119Z,27.58
2023-07-18T03:15:06.025Z,26.98
2023-07-18T03:18:08.223Z,27.33
2023-07-18T03:21:10.602Z,27.05
2023-07-18T03:24:12.515Z,27.46
2023-07-18T03:27:14.570Z,26.81
2023-07-18T03:30:17.372Z,28.06
2023-07-18T03:33:19.383Z,27.12
2023-07-18T03:36:21.637Z,27.23
2023-07-18T03:39:23.682Z,28.22
2023-07-18T03:42:25.924Z,27.67
2023-07-18T03:45:27.855Z,27.78
2023-07-18T03:48:29.905Z,27.33
2023-07-18T03:51:34.702Z,27.10
2023-07-18T03:54:39.880Z,27.39
2023-07-18T03:57:42.783Z,26.83
2023-07-18T04:00:44.735Z,27.73
2023-07-18T04:03:46.801Z,28.02
2023-07-18T04:06:49.097Z,27.19
2023-07-18T04:09:51.019Z,27.82
2023-07-18T04:12:53.062Z,27.50
2023-07-18T04:15:55.639Z,27.83
2023-07-18T04:18:57.699Z,27.94
2023-07-18T04:21:59.581Z,27.70
2023-07-18T04:25:01.509Z,27.94
2023-07-18T04:28:03.991Z,27.92
2023-07-18T04:31:06.349Z,28.77
2023-07-18T04:34:08.374Z,28.29
2023-07-18T04:37:10.270Z,28.34
2023-07-18T04:40:12.917Z,28.38
2023-07-18T04:43:14.822Z,29.04
2023-07-18T04:46:17.489Z,28.98
2023-07-18T04:49:20.227Z,28.98
2023-07-18T04:52:22.145Z,28.91
2023-07-18T04:55:24.171Z,29.35
2023-07-18T04:58:26.679Z,29.50
2023-07-18T05:01:30.197Z,29.82
2023-07-18T05:04:32.256Z,29.00
2023-07-18T05:07:34.319Z,29.29
2023-07-18T05:10:36.322Z,30.23
2023-07-18T05:13:38.324Z,30.95
2023-07-18T05:16:40.294Z,30.68
2023-07-18T05:19:42.160Z,31.34
2023-07-18T05:22:45.157Z,31.54
2023-07-18T05:25:47.128Z,31.63
2023-07-18T05:28:49.394Z,31.24
2023-07-18T05:31:51.398Z,31.72
2023-07-18T05:34:53.295Z,32.41
2023-07-18T05:37:55.734Z,31.64
2023-07-18T05:40:57.787Z,32.50
2023-07-18T05:43:59.737Z,33.02
2023-07-18T05:47:01.712Z,32.87
2023-07-18T05:50:04.023Z,33.79
2023-07-18T05:53:06.121Z,32.55
2023-07-18T05:56:08.829Z,32.15
2023-07-18T05:59:10.764Z,32.32
2023-07-18T06:02:12.809Z,33.71
2023-07-18T06:05:15.487Z,32.47
2023-07-18T06:08:18.076Z,33.52
2023-07-18T06:11:20.250Z,32.96
2023-07-18T06:14:22.406Z,32.94
2023-07-18T06:17:24.560Z,31.78
2023-07-18T06:20:26.546Z,32.66
2023-07-18T06:23:28.470Z,32.94
2023-07-18T06:26:30.445Z,33.34
2023-07-18T06:29:32.490Z,34.25
2023-07-18T06:32:34.505Z,34.08
2023-07-18T06:35:36.479Z,34.44
2023-07-18T06:38:38.892Z,33.31
2023-07-18T06:41:41.088Z,34.62
2023-07-18T06:44:43.045Z,34.21
2023-07-18T06:47:47.421Z,35.68
2023-07-18T06:50:52.468Z,34.84
2023-07-18T06:53:54.544Z,35.24
2023-07-18T06:56:56.576Z,34.36
2023-07-18T06:59:58.507Z,34.05
2023-07-18T07:03:00.572Z,35.21
2023-07-18T07:06:02.572Z,35.81
2023-07-18T07:09:04.620Z,36.44
2023-07-18T07:12:06.979Z,35.61
2023-07-18T07:15:09.153Z,35.30
2023-07-18T07:18:11.471Z,35.76
2023-07-18T07:21:15.654Z,36.58
2023-07-18T07:24:18.282Z,37.03
2023-07-18T07:27:20.737Z,36.12
2023-07-18T07:30:22.760Z,35.68
2023-07-18T07:33:27.074Z,34.70
2023-07-18T07:36:29.461Z,35.60
2023-07-18T07:39:31.684Z,36.44
2023-07-18T07:42:33.851Z,37.02
2023-07-18T07:45:35.793Z,38.09
2023-07-18T07:48:37.745Z,37.92
2023-07-18T07:51:39.875Z,37.72
2023-07-18T07:54:42.114Z,35.93
2023-07-18T07:57:44.505Z,36.63
2023-07-18T08:00:46.683Z,38.46
2023-07-18T08:03:49.502Z,38.30
2023-07-18T08:06:53.832Z,37.78
2023-07-18T08:09:56.354Z,38.30
2023-07-18T08:12:58.284Z,37.68
2023-07-18T08:16:00.275Z,37.41
2023-07-18T08:19:02.243Z,37.96
2023-07-18T08:22:04.547Z,38.91
2023-07-18T08:25:06.539Z,38.64
2023-07-18T08:28:08.410Z,37.84
2023-07-18T08:31:10.715Z,37.08
2023-07-18T08:34:12.721Z,36.55
2023-07-18T08:37:14.686Z,36.74
2023-07-18T08:40:16.659Z,35.67
2023-07-18T08:43:19.555Z,35.24
2023-07-18T08:46:22.006Z,34.72
2023-07-18T08:49:26.102Z,37.36
2023-07-18T08:52:28.051Z,36.30
2023-07-18T08:55:35.733Z,35.79
2023-07-18T08:58:40.777Z,35.69
2023-07-18T09:01:46.928Z,35.08
2023-07-18T09:04:48.895Z,35.89
2023-07-18T09:07:50.918Z,35.44
2023-07-18T09:11:02.389Z,36.56
2023-07-18T09:14:04.499Z,35.62
2023-07-18T09:17:08.133Z,35.34
2023-07-18T09:20:10.613Z,37.82
2023-07-18T09:23:13.797Z,36.74
2023-07-18T09:26:16.586Z,36.72
2023-07-18T09:29:18.834Z,35.35
2023-07-18T09:32:21.697Z,36.60
2023-07-18T09:35:23.763Z,37.45
2023-07-18T09:38:26.314Z,37.03
2023-07-18T09:41:28.483Z,36.20
2023-07-18T09:44:33.943Z,35.19
2023-07-18T09:47:36.295Z,35.05
2023-07-18T09:50:39.714Z,35.25
2023-07-18T09:53:47.204Z,36.35
2023-07-18T09:56:49.555Z,37.05
2023-07-18T09:59:51.534Z,35.20
2023-07-18T10:02:54.278Z,35.56
2023-07-18T10:05:56.645Z,35.36
2023-07-18T10:08:58.510Z,35.89
2023-07-18T10:12:00.588Z,36.68
2023-07-18T10:15:04.293Z,35.14
2023-07-18T10:18:26.884Z,35.22
2023-07-18T10:21:33.488Z,34.43
2023-07-18T10:24:35.582Z,34.95
2023-07-18T10:27:39.056Z,33.46
2023-07-18T10:30:42.987Z,34.85
2023-07-18T10:34:04.325Z,33.60
2023-07-18T10:37:08.920Z,35.07
2023-07-18T10:40:11.941Z,33.35
2023-07-18T10:43:17.994Z,34.85
2023-07-18T10:46:21.317Z,35.52
2023-07-18T10:49:33.123Z,35.25
2023-07-18T10:52:36.301Z,36.97
2023-07-18T10:55:39.816Z,36.34
2023-07-18T10:58:41.866Z,36.22
2023-07-18T11:01:43.884Z,37.88
2023-07-18T11:04:45.916Z,38.05
2023-07-18T11:07:48.317Z,37.99
2023-07-18T11:10:54.158Z,38.70
2023-07-18T11:13:56.252Z,36.37
2023-07-18T11:16:58.650Z,38.05
2023-07-18T11:20:00.652Z,37.82
2023-07-18T11:23:02.760Z,37.99
2023-07-18T11:26:13.603Z,37.66
2023-07-18T11:29:15.868Z,37.82
2023-07-18T11:32:33.442Z,38.39
2023-07-18T11:35:35.712Z,37.28
2023-07-18T11:38:39.022Z,37.18
2023-07-18T11:41:41.419Z,38.21
2023-07-18T11:44:43.353Z,39.79
2023-07-18T11:47:49.206Z,39.33
2023-07-18T11:50:51.458Z,37.63
2023-07-18T11:53:53.390Z,40.56
2023-07-18T11:56:55.455Z,40.27
2023-07-18T11:59:57.610Z,41.22
2023-07-18T12:02:59.796Z,39.03
2023-07-18T12:06:01.847Z,37.66
2023-07-18T12:09:07.686Z,38.61
2023-07-18T12:12:10.381Z,41.47
2023-07-18T12:15:14.290Z,37.83
2023-07-18T12:18:16.281Z,37.28
2023-07-18T12:21:18.526Z,36.17
2023-07-18T12:24:20.805Z,36.07
2023-07-18T12:27:22.922Z,36.27
2023-07-18T12:30:24.919Z,36.49
2023-07-18T12:33:27.008Z,35.40
2023-07-18T12:36:28.920Z,34.60
2023-07-18T12:39:31.080Z,36.24
2023-07-18T12:42:33.002Z,34.87
2023-07-18T12:45:35.040Z,34.38
2023-07-18T12:48:36.987Z,34.72
2023-07-18T12:51:39.150Z,34.73
2023-07-18T12:54:41.387Z,34.10
2023-07-18T12:57:43.411Z,34.29
2023-07-18T13:00:45.590Z,34.95
2023-07-18T13:03:47.845Z,34.96
2023-07-18T13:06:50.826Z,34.83
2023-07-18T13:09:53.913Z,34.86
2023-07-18T13:12:55.879Z,34.46
2023-07-18T13:15:59.424Z,34.26
2023-07-18T13:19:01.904Z,34.10
2023-07-18T13:22:04.629Z,34.68
2023-07-18T13:25:07.233Z,33.83
2023-07-18T13:28:09.636Z,33.69
2023-07-18T13:31:12.740Z,33.50
2023-07-18T13:34:14.835Z,34.16
2023-07-18T13:37:16.792Z,34.86
2023-07-18T13:40:18.903Z,34.12
2023-07-18T13:43:20.966Z,34.38
2023-07-18T13:46:23.446Z,34.65
2023-07-18T13:49:49.142Z,34.20
2023-07-18T13:52:49.761Z,34.69
2023-07-18T13:55:51.800Z,34.37
2023-07-18T13:58:54.132Z,34.42
2023-07-18T14:01:56.170Z,34.35
2023-07-18T14:04:58.606Z,33.65
2023-07-18T14:08:00.476Z,33.50
2023-07-18T14:11:03.734Z,33.48
2023-07-18T14:14:05.838Z,34.17
2023-07-18T14:17:07.827Z,35.15
2023-07-18T14:20:10.442Z,34.51
2023-07-18T14:23:12.504Z,35.18
2023-07-18T14:26:14.969Z,35.42
2023-07-18T14:29:17.291Z,35.12
2023-07-18T14:32:19.515Z,35.00
2023-07-18T14:35:22.005Z,34.61
2023-07-18T14:38:23.980Z,35.10
2023-07-18T14:41:26.067Z,34.39
2023-07-18T14:44:28.268Z,34.05
2023-07-18T14:47:30.315Z,33.45
2023-07-18T14:50:32.276Z,33.57
2023-07-18T14:53:35.025Z,33.85
2023-07-18T14:56:38.403Z,33.71
2023-07-18T14:59:40.784Z,34.40
2023-07-18T15:02:43.059Z,34.94
2023-07-18T15:05:45.006Z,34.20
2023-07-18T15:08:48.549Z,34.64
2023-07-18T15:11:50.888Z,34.60
2023-07-18T15:14:53.503Z,34.02
2023-07-18T15:17:55.362Z,33.63
2023-07-18T15:20:59.254Z,33.37
2023-07-18T15:24:01.504Z,34.56
2023-07-18T15:27:03.808Z,34.94
2023-07-18T15:30:07.596Z,34.51
2023-07-18T15:33:25.606Z,33.84
2023-07-18T15:36:29.204Z,33.46
2023-07-18T15:39:31.199Z,34.18
2023-07-18T15:42:33.679Z,33.84
2023-07-18T15:45:35.566Z,33.71
2023-07-18T15:48:37.819Z,33.75
2023-07-18T15:51:40.104Z,33.92
2023-07-18T15:54:42.073Z,34.03
2023-07-18T15:57:44.014Z,34.14
2023-07-18T16:00:46.020Z,33.47
2023-07-18T16:03:48.191Z,33.99
2023-07-18T16:06:50.376Z,34.34
2023-07-18T16:09:53.469Z,33.31
2023-07-18T16:12:55.835Z,33.70
2023-07-18T16:15:57.723Z,34.51
2023-07-18T16:19:04.737Z,33.47
2023-07-18T16:22:07.171Z,33.98
2023-07-18T16:25:09.579Z,33.93
2023-07-18T16:28:11.554Z,33.34
2023-07-18T16:31:13.712Z,33.69
2023-07-18T16:34:16.498Z,33.93
2023-07-18T16:37:18.599Z,33.53
2023-07-18T16:40:21.449Z,33.82
2023-07-18T16:43:23.345Z,33.67
2023-07-18T16:46:25.312Z,32.97
2023-07-18T16:49:27.188Z,33.82
2023-07-18T16:52:29.175Z,33.73
2023-07-18T16:55:31.172Z,33.75
2023-07-18T16:58:33.126Z,33.67
2023-07-18T17:01:35.205Z,33.76
2023-07-18T17:04:37.471Z,33.13
2023-07-18T17:07:39.422Z,32.81
2023-07-18T17:10:41.595Z,33.18
2023-07-18T17:13:43.720Z,32.95
2023-07-18T17:16:46.576Z,32.68
2023-07-18T17:20:04.628Z,32.80
2023-07-18T17:23:09.668Z,32.82
2023-07-18T17:26:11.614Z,32.37
2023-07-18T17:29:13.516Z,32.70
2023-07-18T17:32:15.504Z,32.54
2023-07-18T17:35:17.964Z,32.55
2023-07-18T17:38:19.923Z,32.75
2023-07-18T17:41:22.016Z,32.29
2023-07-18T17:44:24.267Z,32.41
2023-07-18T17:47:26.274Z,33.46
2023-07-18T17:50:28.383Z,33.50
2023-07-18T17:53:31.712Z,32.98
2023-07-18T17:56:33.837Z,33.20
2023-07-18T17:59:35.730Z,32.81
2023-07-18T18:02:37.868Z,32.92
2023-07-18T18:05:51.566Z,32.91
2023-07-18T18:08:53.814Z,32.33
2023-07-18T18:11:57.341Z,33.37
2023-07-18T18:14:59.322Z,33.73
2023-07-18T18:18:02.527Z,32.88
2023-07-18T18:21:04.808Z,33.51
2023-07-18T18:24:06.979Z,33.19
2023-07-18T18:27:09.323Z,32.92
2023-07-18T18:30:12.109Z,32.02
2023-07-18T18:33:13.976Z,33.25
2023-07-18T18:36:15.988Z,32.90
2023-07-18T18:39:18.639Z,31.78
2023-07-18T18:42:20.529Z,31.81
2023-07-18T18:45:22.473Z,31.92
2023-07-18T18:48:24.647Z,32.23
2023-07-18T18:51:27.181Z,32.48
2023-07-18T18:54:29.075Z,31.87
2023-07-18T18:57:31.324Z,31.86
2023-07-18T19:00:33.424Z,31.88
2023-07-18T19:03:35.551Z,31.55
2023-07-18T19:06:37.740Z,31.43
2023-07-18T19:09:40.834Z,32.32
2023-07-18T19:12:42.766Z,31.76
2023-07-18T19:15:44.798Z,31.19
2023-07-18T19:18:46.769Z,31.90
2023-07-18T19:21:48.771Z,31.63
2023-07-18T19:24:51.110Z,32.31
2023-07-18T19:27:53.193Z,32.44
2023-07-18T19:30:55.250Z,32.51
2023-07-18T19:33:57.187Z,31.42
2023-07-18T19:36:59.228Z,31.67
2023-07-18T19:40:01.404Z,31.88
2023-07-18T19:43:03.330Z,32.22
2023-07-18T19:46:06.067Z,31.61
2023-07-18T19:49:08.087Z,31.39
2023-07-18T19:52:10.261Z,32.22
2023-07-18T19:55:12.309Z,31.42
2023-07-18T19:58:14.290Z,32.26
2023-07-18T20:01:16.229Z,32.41
2023-07-18T20:04:18.638Z,32.73
2023-07-18T20:07:22.590Z,32.04
2023-07-18T20:10:24.568Z,32.49
2023-07-18T20:13:26.512Z,32.23
2023-07-18T20:16:28.587Z,32.01
2023-07-18T20:19:30.575Z,32.03
2023-07-18T20:22:32.580Z,31.55
2023-07-18T20:25:34.519Z,32.01
2023-07-18T20:28:37.405Z,31.76
2023-07-18T20:31:39.438Z,31.51
2023-07-18T20:34:41.930Z,31.86
2023-07-18T20:37:43.877Z,31.97
2023-07-18T20:40:46.447Z,31.88
2023-07-18T20:43:48.508Z,31.68
2023-07-18T20:46:50.541Z,31.53
2023-07-18T20:49:52.678Z,30.84
2023-07-18T20:52:54.782Z,30.37
2023-07-18T20:55:57.168Z,30.15
2023-07-18T20:58:59.117Z,31.56
2023-07-18T21:02:00.959Z,31.61
2023-07-18T21:05:03.007Z,31.83
2023-07-18T21:08:05.251Z,31.68
2023-07-18T21:11:07.617Z,31.69
2023-07-18T21:14:09.508Z,31.40
2023-07-18T21:17:11.448Z,31.65
2023-07-18T21:20:13.863Z,31.48
2023-07-18T21:23:15.938Z,31.55
2023-07-18T21:26:18.077Z,31.43
2023-07-18T21:29:21.883Z,30.98
2023-07-18T21:32:23.994Z,31.45
2023-07-18T21:35:26.015Z,31.27
2023-07-18T21:38:29.256Z,31.40
2023-07-18T21:41:31.998Z,31.33
2023-07-18T21:44:34.022Z,30.99
2023-07-18T21:47:36.183Z,31.45
2023-07-18T21:50:40.126Z,31.18
2023-07-18T21:53:41.996Z,31.32
2023-07-18T21:56:44.016Z,30.16
2023-07-18T21:59:46.083Z,30.36
2023-07-18T22:02:48.104Z,30.65
2023-07-18T22:05:50.096Z,30.31
2023-07-18T22:08:52.076Z,30.00
2023-07-18T22:11:54.117Z,31.20
2023-07-18T22:14:56.355Z,30.72
2023-07-18T22:18:06.383Z,30.08
2023-07-18T22:21:18.471Z,30.71
2023-07-18T22:24:21.132Z,31.02
2023-07-18T22:27:23.404Z,30.50
2023-07-18T22:30:25.298Z,30.57
2023-07-18T22:33:27.762Z,30.54
2023-07-18T22:36:29.741Z,29.40
2023-07-18T22:39:36.597Z,29.75
2023-07-18T22:42:39.975Z,30.12
2023-07-18T22:45:42.865Z,29.82
2023-07-18T22:48:44.816Z,29.21
2023-07-18T22:51:47.528Z,29.59
2023-07-18T22:54:50.801Z,29.53
2023-07-18T22:57:52.844Z,30.03
2023-07-18T23:00:54.841Z,29.41
2023-07-18T23:03:56.920Z,29.11
2023-07-18T23:06:58.862Z,29.26
2023-07-18T23:10:00.792Z,28.98
2023-07-18T23:13:04.815Z,29.11
2023-07-18T23:16:06.745Z,29.02
2023-07-18T23:19:08.641Z,28.58
2023-07-18T23:22:10.544Z,29.07
2023-07-18T23:25:12.501Z,28.86
2023-07-18T23:28:16.098Z,28.45
2023-07-18T23:31:18.638Z,28.81
2023-07-18T23:34:21.139Z,29.07
2023-07-18T23:37:23.055Z,29.36
2023-07-18T23:40:25.251Z,28.64
2023-07-18T23:43:31.426Z,29.00
2023-07-18T23:46:34.371Z,28.91
2023-07-18T23:49:36.320Z,28.59
2023-07-18T23:52:40.156Z,28.15
2023-07-18T23:55:51.066Z,28.36
2023-07-18T23:58:53.090Z,28.93
